Time;durP1;ratioP1;P1;durP2;ratioP2;P2;SDS_P1;SDS_P2;PMS_P1;PMS_P2;Temp;Humidity;BMP_temperature;BMP_pressure;BME280_temperature;BME280_humidity;BME280_pressure;Samples;Min_cycle;Max_cycle;Signal;HPM_P1;HPM_P2
2024/03/09 00:00:16;;;;;;;16.27;9.87;;;;;;;3.89;69.72;98012.72;4872417;29;40064;-75
2024/03/09 00:02:47;;;;;;;16.80;10.17;;;;;;;3.84;71.28;98001.59;4860259;29;42056;-77
2024/03/09 00:05:15;;;;;;;16.53;9.23;;;;;;;3.82;71.82;98000.84;4859426;29;43545;-75
2024/03/09 00:07:43;;;;;;;17.13;9.70;;;;;;;3.65;71.98;97973.78;4876331;29;42819;-77
2024/03/09 00:10:12;;;;;;;16.37;9.47;;;;;;;3.78;72.29;97990.59;4875856;29;40057;-77
2024/03/09 00:12:40;;;;;;;17.13;9.73;;;;;;;3.75;71.70;97988.97;4877191;29;41526;-77
2024/03/09 00:15:11;;;;;;;12.97;8.33;;;;;;;3.73;71.84;97990.81;4876586;29;42778;-76
2024/03/09 00:17:41;;;;;;;15.93;9.77;;;;;;;3.73;72.34;97997.81;4860221;29;41385;-75
2024/03/09 00:20:15;;;;;;;15.87;9.83;;;;;;;3.59;71.39;97988.00;4860033;29;39259;-76
2024/03/09 00:22:45;;;;;;;17.07;9.33;;;;;;;3.70;71.41;98011.94;4876066;29;41864;-74
2024/03/09 00:25:12;;;;;;;15.57;10.03;;;;;;;3.67;70.91;98012.06;4875409;29;42495;-76
2024/03/09 00:27:40;;;;;;;12.63;9.27;;;;;;;3.65;72.32;98008.66;4875723;29;43256;-76
2024/03/09 00:30:13;;;;;;;15.67;9.03;;;;;;;3.64;71.32;98022.69;4875858;29;40237;-76
2024/03/09 00:32:40;;;;;;;13.83;9.13;;;;;;;3.64;71.36;98025.28;4874271;29;42661;-75
2024/03/09 00:35:10;;;;;;;14.13;8.53;;;;;;;3.63;70.64;98023.59;4876457;29;43675;-76
2024/03/09 00:37:37;;;;;;;14.27;8.23;;;;;;;3.58;69.73;98023.00;4876541;29;41173;-75
2024/03/09 00:40:08;;;;;;;11.03;7.57;;;;;;;3.55;69.64;98023.13;4876524;29;40032;-75
2024/03/09 00:42:36;;;;;;;14.43;8.83;;;;;;;3.51;68.96;98018.94;4876464;29;42683;-78
2024/03/09 00:45:04;;;;;;;10.80;7.60;;;;;;;3.48;68.60;98019.94;4861048;29;41684;-75
2024/03/09 00:47:34;;;;;;;12.43;8.33;;;;;;;3.46;68.76;98019.16;4877509;29;42330;-76
2024/03/09 00:50:02;;;;;;;11.33;7.07;;;;;;;3.45;68.42;98021.88;4877555;29;40123;-77
2024/03/09 00:52:31;;;;;;;9.93;6.50;;;;;;;3.41;68.74;98012.47;4876244;29;42021;-74
2024/03/09 00:54:58;;;;;;;13.80;7.87;;;;;;;3.37;69.02;98008.28;4860566;29;44316;-77
2024/03/09 00:57:25;;;;;;;15.80;9.37;;;;;;;3.33;69.24;98006.75;4860286;29;40765;-77
2024/03/09 00:59:54;;;;;;;15.17;9.07;;;;;;;3.29;69.18;97995.56;4859019;29;38968;-74
2024/03/09 01:02:22;;;;;;;16.00;9.27;;;;;;;3.25;69.53;98005.31;4876146;29;41786;-77
2024/03/09 01:04:50;;;;;;;15.60;9.70;;;;;;;3.25;71.68;97987.00;4859599;29;42148;-76
2024/03/09 01:07:19;;;;;;;17.40;10.33;;;;;;;3.24;71.51;97989.69;4876317;29;41957;-76
2024/03/09 01:09:49;;;;;;;14.07;9.43;;;;;;;3.21;73.22;97977.59;4859355;29;40164;-76
2024/03/09 01:12:17;;;;;;;15.43;9.83;;;;;;;3.11;72.79;97954.56;4859248;29;41896;-74
2024/03/09 01:14:47;;;;;;;16.53;8.80;;;;;;;3.17;72.32;97965.59;4875118;29;42765;-75
2024/03/09 01:17:20;;;;;;;14.17;9.07;;;;;;;3.13;72.12;97964.03;4877604;29;41225;-75
2024/03/09 01:19:48;;;;;;;13.33;8.90;;;;;;;3.07;73.28;97945.19;4875478;29;39796;-76
2024/03/09 01:22:15;;;;;;;13.83;8.70;;;;;;;3.07;74.10;97948.66;4862063;29;40668;-74
2024/03/09 01:24:43;;;;;;;13.90;9.60;;;;;;;3.03;73.77;97949.69;4862656;29;41639;-75
2024/03/09 01:27:12;;;;;;;13.83;9.43;;;;;;;2.86;74.20;97919.09;4877923;29;42890;-75
2024/03/09 01:29:46;;;;;;;15.80;9.07;;;;;;;2.97;75.36;97934.28;4879358;29;40702;-77
2024/03/09 01:32:14;;;;;;;17.33;9.80;;;;;;;2.94;74.79;97939.69;4863459;29;42156;-75
2024/03/09 01:34:42;;;;;;;14.50;10.03;;;;;;;2.83;75.21;97921.03;4880223;29;42614;-78
2024/03/09 01:37:11;;;;;;;14.27;9.60;;;;;;;2.89;75.12;97936.41;4878833;29;43243;-75
2024/03/09 01:39:38;;;;;;;14.73;9.70;;;;;;;2.87;75.25;97935.63;4878920;29;39211;-76
2024/03/09 01:42:08;;;;;;;14.83;9.00;;;;;;;2.81;74.67;97930.69;4879906;29;42540;-76
2024/03/09 01:44:37;;;;;;;14.37;9.23;;;;;;;2.80;74.65;97929.00;4878735;29;43345;-77
2024/03/09 01:47:06;;;;;;;14.53;9.23;;;;;;;2.73;73.98;97930.19;4879981;29;41961;-75
2024/03/09 01:49:35;;;;;;;12.73;8.30;;;;;;;2.76;73.12;97943.97;4880101;29;41070;-76
2024/03/09 01:52:04;;;;;;;12.00;7.80;;;;;;;2.64;72.71;97922.78;4879817;29;42581;-74
2024/03/09 01:54:34;;;;;;;13.87;8.50;;;;;;;2.69;72.29;97937.34;4878551;29;42993;-76
2024/03/09 01:57:02;;;;;;;11.83;7.63;;;;;;;2.66;71.87;97944.47;4878745;29;42175;-77
2024/03/09 01:59:30;;;;;;;9.90;6.73;;;;;;;2.61;71.66;97947.28;4877821;29;39124;-75
2024/03/09 02:02:01;;;;;;;11.40;7.03;;;;;;;2.57;71.94;97947.50;4878183;29;41516;-77
2024/03/09 02:04:30;;;;;;;11.73;7.20;;;;;;;2.53;71.86;97947.63;4874855;29;42945;-76
2024/03/09 02:06:58;;;;;;;12.03;8.53;;;;;;;2.49;72.79;97943.44;4878613;29;42438;-75
2024/03/09 02:09:26;;;;;;;13.67;8.47;;;;;;;2.34;73.54;97923.25;4877370;29;40075;-77
2024/03/09 02:11:57;;;;;;;16.63;10.23;;;;;;;2.43;74.01;97937.66;4877383;29;40722;-74
2024/03/09 02:14:24;;;;;;;16.67;9.47;;;;;;;2.40;72.94;97941.25;4878307;29;42931;-76
2024/03/09 02:16:51;;;;;;;15.07;8.47;;;;;;;2.38;73.60;97937.84;4861855;29;41117;-76
2024/03/09 02:19:20;;;;;;;15.47;9.73;;;;;;;2.37;73.31;97945.75;4861759;29;39258;-76
2024/03/09 02:21:50;;;;;;;12.87;8.53;;;;;;;2.35;73.07;97948.44;4877087;29;42726;-73
2024/03/09 02:24:21;;;;;;;14.90;8.87;;;;;;;2.36;73.04;97942.28;4877229;29;43833;-75
2024/03/09 02:26:50;;;;;;;13.43;7.97;;;;;;;2.34;73.91;97944.16;4861271;29;41015;-76
2024/03/09 02:29:23;;;;;;;14.10;8.43;;;;;;;2.22;73.90;97920.34;4877258;29;40173;-76
2024/03/09 02:31:55;;;;;;;11.87;8.37;;;;;;;2.34;74.61;97935.47;4862852;29;40314;-75
2024/03/09 02:34:23;;;;;;;13.40;8.57;;;;;;;2.23;76.44;97912.41;4876560;29;42746;-77
2024/03/09 02:36:50;;;;;;;14.50;9.07;;;;;;;2.29;76.40;97922.59;4879246;29;43412;-77
2024/03/09 02:39:18;;;;;;;15.97;9.50;;;;;;;2.30;76.65;97926.91;4878010;29;40762;-76
2024/03/09 02:41:45;;;;;;;15.30;9.50;;;;;;;2.27;75.87;97929.66;4878013;29;42683;-77
2024/03/09 02:44:14;;;;;;;14.43;10.00;;;;;;;2.30;76.03;97929.53;4879238;29;42647;-77
2024/03/09 02:46:42;;;;;;;13.40;8.50;;;;;;;2.30;75.95;97926.06;4862231;29;42210;-77
2024/03/09 02:49:09;;;;;;;18.23;9.80;;;;;;;2.29;76.59;97919.13;4862526;29;40252;-77
2024/03/09 02:51:37;;;;;;;17.00;10.33;;;;;;;2.26;76.47;97917.50;4879027;29;42732;-78
2024/03/09 02:54:05;;;;;;;13.37;8.37;;;;;;;2.26;75.93;97921.88;4879053;29;43682;-74
2024/03/09 02:56:33;;;;;;;14.70;9.20;;;;;;;2.24;75.90;97914.09;4862126;29;41556;-75
2024/03/09 02:59:00;;;;;;;15.80;9.73;;;;;;;2.23;77.04;97901.97;4877486;29;40985;-77
2024/03/09 03:01:29;;;;;;;15.10;9.13;;;;;;;2.21;76.60;97911.66;4876059;29;41799;-77
2024/03/09 03:03:59;;;;;;;14.20;9.97;;;;;;;2.20;79.17;97896.91;4876786;29;41664;-75
2024/03/09 03:06:28;;;;;;;14.93;9.17;;;;;;;2.20;79.63;97896.03;4877754;29;43549;-76
2024/03/09 03:08:59;;;;;;;16.33;9.47;;;;;;;2.20;78.61;97902.13;4876738;29;40697;-74
2024/03/09 03:11:27;;;;;;;16.40;9.70;;;;;;;2.20;78.94;97896.91;4876527;29;42622;-76
2024/03/09 03:13:55;;;;;;;15.27;9.10;;;;;;;2.19;78.20;97899.56;4876521;29;41273;-77
2024/03/09 03:16:28;;;;;;;17.03;10.70;;;;;;;2.08;78.92;97872.16;4876347;29;42337;-74
2024/03/09 03:18:57;;;;;;;15.43;9.67;;;;;;;2.19;79.12;97894.34;4861351;29;38988;-78
2024/03/09 03:21:25;;;;;;;15.77;9.93;;;;;;;2.19;79.35;97896.97;4861380;29;40456;-75
2024/03/09 03:23:53;;;;;;;16.43;9.90;;;;;;;2.20;79.30;97901.28;4861035;29;42498;-75
2024/03/09 03:26:21;;;;;;;15.13;9.53;;;;;;;2.19;79.13;97905.63;4877811;29;43120;-78
2024/03/09 03:28:51;;;;;;;15.03;9.00;;;;;;;2.19;79.98;97905.63;4876961;29;38906;-77
2024/03/09 03:31:21;;;;;;;13.40;8.93;;;;;;;2.18;80.45;97898.72;4877426;29;41805;-75
2024/03/09 03:33:49;;;;;;;16.30;10.27;;;;;;;2.17;81.85;97897.03;4877562;29;44333;-75
2024/03/09 03:36:20;;;;;;;14.80;9.53;;;;;;;2.14;80.88;97898.00;4861770;29;41451;-76
2024/03/09 03:38:49;;;;;;;15.67;9.67;;;;;;;2.17;79.98;97907.47;4861491;29;39982;-74
2024/03/09 03:41:22;;;;;;;14.83;9.03;;;;;;;2.16;79.29;97911.84;4861701;29;40501;-77
2024/03/09 03:43:49;;;;;;;14.07;9.03;;;;;;;2.17;79.21;97907.47;4875852;29;43580;-77
2024/03/09 03:46:17;;;;;;;15.13;9.37;;;;;;;2.16;79.61;97903.16;4861999;29;41224;-75
2024/03/09 03:48:45;;;;;;;13.50;8.17;;;;;;;2.17;78.81;97912.69;4878706;29;40108;-75
2024/03/09 03:51:13;;;;;;;12.67;8.53;;;;;;;2.15;78.11;97909.28;4861674;29;40657;-77
2024/03/09 03:53:43;;;;;;;14.17;8.13;;;;;;;2.17;78.16;97921.38;4861675;29;43331;-74
2024/03/09 03:56:11;;;;;;;12.83;8.70;;;;;;;2.16;79.26;97911.00;4876450;29;43415;-73
2024/03/09 03:58:39;;;;;;;13.57;7.73;;;;;;;2.19;78.33;97916.09;4877382;29;39144;-74
2024/03/09 04:01:07;;;;;;;11.50;8.87;;;;;;;2.19;78.44;97913.47;4874987;29;40783;-78
2024/03/09 04:03:37;;;;;;;14.10;9.57;;;;;;;2.18;79.08;97898.72;4876240;29;41741;-77
2024/03/09 04:06:06;;;;;;;14.23;9.50;;;;;;;2.12;79.35;97878.94;4860636;29;41143;-77
2024/03/09 04:08:33;;;;;;;14.57;9.57;;;;;;;2.29;79.37;97904.31;4875697;29;41417;-75
2024/03/09 04:11:03;;;;;;;12.37;8.80;;;;;;;2.32;79.11;97893.72;4860189;29;42199;-76
2024/03/09 04:13:31;;;;;;;14.80;9.50;;;;;;;2.33;79.95;97887.59;4876112;29;43573;-76
2024/03/09 04:16:01;;;;;;;14.77;9.50;;;;;;;2.36;80.57;97881.34;4875813;29;41208;-77
2024/03/09 04:18:30;;;;;;;14.23;9.47;;;;;;;2.37;80.64;97872.59;4875849;29;39892;-76
2024/03/09 04:20:57;;;;;;;11.73;8.83;;;;;;;2.40;80.49;97873.31;4876970;29;42663;-75
2024/03/09 04:23:25;;;;;;;15.23;9.73;;;;;;;2.43;80.85;97877.56;4875743;29;43767;-77
2024/03/09 04:25:53;;;;;;;13.37;8.83;;;;;;;2.45;80.92;97871.38;4875708;29;42883;-76
2024/03/09 04:28:22;;;;;;;13.33;9.43;;;;;;;2.47;81.00;97879.94;4860131;29;41800;-75
2024/03/09 04:30:50;;;;;;;15.37;9.60;;;;;;;2.50;81.42;97879.81;4860427;29;42207;-74
2024/03/09 04:33:20;;;;;;;18.23;10.87;;;;;;;2.53;80.88;97884.91;4861122;29;43046;-74
2024/03/09 04:35:48;;;;;;;16.43;9.73;;;;;;;2.58;80.65;97881.25;4876400;29;42094;-77
2024/03/09 04:38:16;;;;;;;17.03;10.33;;;;;;;2.59;81.05;97868.13;4876866;29;38760;-75
2024/03/09 04:40:45;;;;;;;13.20;8.60;;;;;;;2.63;80.25;97877.50;4876155;29;41576;-76
2024/03/09 04:43:13;;;;;;;15.67;9.50;;;;;;;2.67;80.15;97870.38;4876570;29;42671;-78
2024/03/09 04:45:42;;;;;;;13.43;8.47;;;;;;;2.71;79.60;97874.53;4876377;29;42255;-77
2024/03/09 04:48:10;;;;;;;15.13;9.20;;;;;;;2.75;79.22;97878.69;4876514;29;39538;-74
2024/03/09 04:50:38;;;;;;;12.47;8.50;;;;;;;2.78;78.74;97871.56;4863010;29;41743;-74
2024/03/09 04:53:07;;;;;;;13.57;8.70;;;;;;;2.76;78.17;97860.31;4879867;29;42749;-74
2024/03/09 04:55:35;;;;;;;12.77;9.00;;;;;;;2.82;77.77;97859.19;4880440;29;42236;-75
2024/03/09 04:58:13;;;;;;;13.30;8.90;;;;;;;2.85;78.11;97859.88;4879668;29;38855;-74
2024/03/09 05:00:43;;;;;;;14.37;9.23;;;;;;;2.87;77.79;97858.03;4875548;29;41715;-77
2024/03/09 05:03:12;;;;;;;11.57;7.73;;;;;;;2.89;77.34;97857.97;4878411;29;43901;-74
2024/03/09 05:05:40;;;;;;;13.70;7.93;;;;;;;2.87;77.32;97851.97;4878266;29;43230;-74
2024/03/09 05:08:08;;;;;;;13.73;7.90;;;;;;;2.90;76.92;97851.81;4878339;29;39196;-74
2024/03/09 05:10:36;;;;;;;12.97;8.63;;;;;;;2.91;76.90;97848.28;4878140;29;42484;-75
2024/03/09 05:13:04;;;;;;;11.60;7.60;;;;;;;2.92;77.08;97843.91;4878497;29;43688;-75
2024/03/09 05:15:32;;;;;;;14.53;8.80;;;;;;;2.91;77.28;97850.06;4878077;29;42350;-73
2024/03/09 05:18:02;;;;;;;13.00;7.73;;;;;;;2.68;76.87;97809.34;4879714;29;41073;-75
2024/03/09 05:20:31;;;;;;;14.73;9.60;;;;;;;2.85;77.52;97832.88;4875677;29;42658;-73
2024/03/09 05:23:03;;;;;;;12.07;8.13;;;;;;;2.83;77.51;97832.97;4879529;29;42861;-74
2024/03/09 05:25:31;;;;;;;17.20;9.03;;;;;;;2.79;77.83;97827.97;4875434;29;42593;-76
2024/03/09 05:27:59;;;;;;;13.70;9.23;;;;;;;2.82;77.64;97833.06;4878324;29;39040;-74
2024/03/09 05:30:28;;;;;;;13.10;8.47;;;;;;;2.80;77.48;97832.28;4878536;29;41030;-76
2024/03/09 05:32:58;;;;;;;13.73;8.90;;;;;;;2.59;77.76;97802.78;4863464;29;42844;-74
2024/03/09 05:35:28;;;;;;;14.63;9.37;;;;;;;2.70;77.45;97825.78;4878647;29;40923;-74
2024/03/09 05:37:58;;;;;;;13.23;8.57;;;;;;;2.71;77.09;97824.88;4863565;29;40339;-73
2024/03/09 05:40:27;;;;;;;11.50;8.50;;;;;;;2.69;77.58;97822.34;4878315;29;41010;-73
2024/03/09 05:42:55;;;;;;;11.93;8.20;;;;;;;2.53;77.74;97790.84;4878487;29;42881;-77
2024/03/09 05:45:23;;;;;;;12.03;8.20;;;;;;;2.67;77.23;97825.94;4862853;29;42331;-77
2024/03/09 05:47:54;;;;;;;11.77;7.57;;;;;;;2.60;77.59;97819.31;4863233;29;38898;-77
2024/03/09 05:50:22;;;;;;;14.43;8.43;;;;;;;2.61;77.41;97829.66;4878353;29;40915;-74
2024/03/09 05:52:53;;;;;;;12.83;8.20;;;;;;;2.58;77.32;97824.59;4878437;29;42492;-75
2024/03/09 05:55:21;;;;;;;11.77;7.67;;;;;;;2.56;77.26;97826.44;4875613;29;43138;-73
2024/03/09 05:57:50;;;;;;;13.20;8.30;;;;;;;2.52;77.57;97825.72;4876911;29;39077;-77
2024/03/09 06:00:19;;;;;;;15.10;9.70;;;;;;;2.47;77.85;97817.25;4876805;29;41902;-73
2024/03/09 06:02:47;;;;;;;13.87;8.53;;;;;;;2.50;77.42;97819.72;4860984;29;41933;-76
2024/03/09 06:05:15;;;;;;;11.80;7.77;;;;;;;2.49;77.55;97818.03;4861374;29;41091;-74
2024/03/09 06:07:45;;;;;;;13.27;8.07;;;;;;;2.48;77.18;97821.56;4861828;29;39033;-74
2024/03/09 06:10:16;;;;;;;12.30;8.53;;;;;;;2.47;77.14;97814.63;4876706;29;40555;-74
2024/03/09 06:12:45;;;;;;;12.53;8.27;;;;;;;2.46;77.18;97819.97;4875554;29;43118;-75
2024/03/09 06:15:15;;;;;;;11.90;8.10;;;;;;;2.44;77.37;97833.09;4877741;29;42246;-76
2024/03/09 06:17:46;;;;;;;15.47;8.50;;;;;;;2.43;77.43;97836.63;4878446;29;40977;-78
2024/03/09 06:20:15;;;;;;;13.60;9.10;;;;;;;2.45;77.69;97834.78;4861556;29;40953;-74
2024/03/09 06:22:43;;;;;;;13.67;8.80;;;;;;;2.49;78.01;97836.31;4876646;29;41796;-75
2024/03/09 06:25:19;;;;;;;14.37;8.80;;;;;;;2.44;78.46;97811.34;4876762;29;42074;-75
2024/03/09 06:27:48;;;;;;;15.67;10.03;;;;;;;2.56;78.61;97830.81;4875567;29;40257;-74
2024/03/09 06:30:16;;;;;;;14.43;9.27;;;;;;;2.62;78.41;97841.81;4876968;29;41716;-77
2024/03/09 06:32:44;;;;;;;14.00;9.13;;;;;;;2.58;79.20;97831.59;4878318;29;42647;-77
2024/03/09 06:35:12;;;;;;;13.93;8.83;;;;;;;2.74;79.47;97845.63;4862038;29;41148;-77
2024/03/09 06:37:39;;;;;;;16.73;9.33;;;;;;;2.80;79.14;97848.81;4879364;29;39961;-74
2024/03/09 06:40:08;;;;;;;14.30;8.60;;;;;;;2.90;79.06;97846.59;4877722;29;42837;-77
2024/03/09 06:42:36;;;;;;;17.23;10.27;;;;;;;2.99;80.07;97840.06;4877902;29;42242;-75
2024/03/09 06:45:08;;;;;;;16.30;9.43;;;;;;;3.12;79.88;97841.16;4878879;29;43288;-74
2024/03/09 06:47:35;;;;;;;14.00;8.57;;;;;;;3.24;79.52;97849.25;4862338;29;39799;-76
2024/03/09 06:50:04;;;;;;;16.67;9.33;;;;;;;3.39;79.21;97839.81;4878951;29;42412;-78
2024/03/09 06:52:33;;;;;;;13.80;9.10;;;;;;;3.60;78.99;97846.56;4862018;29;41919;-77
2024/03/09 06:55:00;;;;;;;15.60;9.63;;;;;;;3.85;78.86;97843.53;4876739;29;43400;-74
2024/03/09 06:57:28;;;;;;;13.97;9.43;;;;;;;4.13;77.94;97834.25;4877292;29;39949;-76
2024/03/09 06:59:55;;;;;;;18.87;10.17;;;;;;;4.24;77.15;97837.16;4861052;29;42003;-75
2024/03/09 07:02:24;;;;;;;14.87;10.00;;;;;;;4.42;76.35;97856.31;4876228;29;42877;-76
2024/03/09 07:04:53;;;;;;;13.57;8.43;;;;;;;4.50;75.43;97857.56;4877225;29;42253;-75
2024/03/09 07:07:21;;;;;;;16.57;10.03;;;;;;;4.52;75.09;97847.84;4876217;29;39110;-76
2024/03/09 07:09:50;;;;;;;13.43;8.63;;;;;;;4.79;74.45;97870.88;4877742;29;42694;-74
2024/03/09 07:12:18;;;;;;;13.07;8.07;;;;;;;5.04;73.75;97879.09;4875937;29;41127;-77
2024/03/09 07:14:46;;;;;;;14.07;9.33;;;;;;;5.16;72.98;97870.53;4875301;29;42986;-74
2024/03/09 07:17:17;;;;;;;13.27;8.13;;;;;;;5.25;72.48;97872.63;4876374;29;38958;-74
2024/03/09 07:19:46;;;;;;;12.43;8.80;;;;;;;5.34;72.35;97874.72;4876518;29;42427;-77
2024/03/09 07:22:14;;;;;;;10.90;7.87;;;;;;;5.34;71.83;97856.34;4877716;29;44237;-75
2024/03/09 07:24:42;;;;;;;13.93;7.93;;;;;;;5.47;71.43;97859.09;4860334;29;43007;-74
2024/03/09 07:27:11;;;;;;;13.90;8.17;;;;;;;5.65;70.98;97872.97;4860485;29;38928;-77
2024/03/09 07:29:39;;;;;;;13.60;9.20;;;;;;;5.75;70.67;97881.97;4877421;29;42033;-75
2024/03/09 07:32:07;;;;;;;12.87;8.67;;;;;;;5.87;70.30;97869.91;4877060;29;41773;-77
2024/03/09 07:34:35;;;;;;;14.03;8.43;;;;;;;6.00;70.22;97866.50;4876907;29;42244;-76
2024/03/09 07:37:04;;;;;;;12.37;8.43;;;;;;;6.19;69.96;97860.09;4878245;29;40784;-75
2024/03/09 07:39:37;;;;;;;13.63;8.33;;;;;;;6.35;69.71;97860.88;4861388;29;41891;-75
2024/03/09 07:42:06;;;;;;;15.27;9.07;;;;;;;6.48;68.97;97840.78;4877354;29;42822;-76
2024/03/09 07:44:33;;;;;;;12.33;8.93;;;;;;;6.87;68.33;97857.63;4861347;29;42389;-76
2024/03/09 07:47:01;;;;;;;12.37;7.93;;;;;;;7.08;67.20;97845.72;4877839;29;39681;-74
2024/03/09 07:49:29;;;;;;;13.47;8.63;;;;;;;7.41;66.76;97848.81;4861450;29;40492;-74
2024/03/09 07:51:57;;;;;;;15.77;8.83;;;;;;;7.76;65.21;97848.25;4877815;29;43290;-74
2024/03/09 07:54:25;;;;;;;12.83;8.90;;;;;;;7.98;63.79;97847.63;4860898;29;41221;-74
2024/03/09 07:56:55;;;;;;;12.27;8.17;;;;;;;8.41;63.22;97867.50;4876545;29;39304;-76
2024/03/09 07:59:22;;;;;;;10.73;7.77;;;;;;;8.92;61.99;97873.53;4876012;29;40711;-76
2024/03/09 08:01:49;;;;;;;13.33;8.40;;;;;;;9.34;59.38;97877.53;4859617;29;43116;-76
2024/03/09 08:04:17;;;;;;;11.80;7.37;;;;;;;9.45;58.51;97878.53;4875885;29;42132;-78
2024/03/09 08:06:47;;;;;;;11.43;8.27;;;;;;;9.48;57.82;97876.53;4875876;29;39786;-76
2024/03/09 08:09:15;;;;;;;11.80;8.87;;;;;;;9.54;56.82;97891.06;4875762;29;41880;-76
2024/03/09 08:11:44;;;;;;;12.33;7.63;;;;;;;9.77;56.83;97879.63;4876740;29;42623;-77
2024/03/09 08:14:11;;;;;;;10.37;8.00;;;;;;;9.80;56.42;97865.34;4875526;29;42547;-78
2024/03/09 08:16:39;;;;;;;12.93;8.13;;;;;;;9.84;56.46;97866.81;4859984;29;38927;-77
2024/03/09 08:19:07;;;;;;;10.40;7.87;;;;;;;9.94;57.39;97867.78;4860097;29;42232;-77
2024/03/09 08:21:35;;;;;;;11.47;8.10;;;;;;;10.00;57.19;97868.19;4876753;29;42895;-77
2024/03/09 08:24:04;;;;;;;11.93;8.40;;;;;;;10.00;55.95;97864.69;4859516;29;42326;-78
2024/03/09 08:26:32;;;;;;;10.27;7.70;;;;;;;10.02;55.57;97857.47;4876261;29;40212;-75
2024/03/09 08:29:00;;;;;;;14.17;8.80;;;;;;;10.11;56.46;97858.59;4859703;29;43052;-75
2024/03/09 08:31:28;;;;;;;9.83;7.10;;;;;;;10.30;56.03;97843.84;4876076;29;42755;-78
2024/03/09 08:33:55;;;;;;;9.87;7.37;;;;;;;10.50;55.16;97846.75;4876890;29;43107;-75
2024/03/09 08:36:26;;;;;;;11.80;8.23;;;;;;;10.57;53.52;97846.16;4877302;29;20257;-78
2024/03/09 08:38:53;;;;;;;12.53;8.40;;;;;;;10.56;52.55;97851.56;4877526;29;41796;-76
2024/03/09 08:41:23;;;;;;;12.67;8.13;;;;;;;10.57;52.82;97834.72;4876082;29;43250;-77
2024/03/09 08:43:51;;;;;;;10.30;7.67;;;;;;;10.95;54.01;97837.81;4859019;29;41196;-76
2024/03/09 08:46:21;;;;;;;11.03;7.80;;;;;;;11.21;53.53;97821.63;4859784;29;40335;-78
2024/03/09 08:48:48;;;;;;;10.63;7.97;;;;;;;11.47;52.29;97837.06;4875474;29;41342;-78
2024/03/09 08:51:17;;;;;;;11.10;8.10;;;;;;;11.68;51.01;97837.09;4875130;29;43151;-75
2024/03/09 08:53:45;;;;;;;9.70;7.50;;;;;;;11.94;50.61;97850.88;4874956;29;43861;-77
2024/03/09 08:56:15;;;;;;;10.60;7.77;;;;;;;12.31;49.87;97853.06;4859812;29;40353;-74
2024/03/09 08:58:43;;;;;;;9.27;6.83;;;;;;;12.99;48.21;97839.06;4872858;29;42558;-78
2024/03/09 09:01:11;;;;;;;9.60;7.23;;;;;;;13.77;46.52;97867.50;4875006;29;41866;-79
2024/03/09 09:03:39;;;;;;;10.03;7.63;;;;;;;14.12;45.63;97871.41;4860014;29;41384;-77
2024/03/09 09:06:08;;;;;;;9.70;7.30;;;;;;;14.32;44.85;97886.38;4875075;29;38972;-79
2024/03/09 09:08:37;;;;;;;9.50;7.27;;;;;;;14.55;45.19;97874.44;4859876;29;43027;-76
2024/03/09 09:11:05;;;;;;;8.37;6.53;;;;;;;14.82;44.93;97875.47;4859663;29;43627;-75
2024/03/09 09:13:32;;;;;;;9.37;7.50;;;;;;;15.66;44.52;97874.34;4859547;29;41728;-77
2024/03/09 09:16:00;;;;;;;10.20;7.27;;;;;;;16.72;42.27;97892.06;4875056;29;41469;-74
2024/03/09 09:18:27;;;;;;;9.03;7.63;;;;;;;17.20;41.28;97904.00;4875061;29;40783;-75
2024/03/09 09:20:56;;;;;;;8.73;6.87;;;;;;;18.58;39.97;97904.31;4876135;29;42721;-77
2024/03/09 09:23:24;;;;;;;8.63;6.47;;;;;;;19.57;36.43;97915.44;4874827;29;42209;-76
2024/03/09 09:25:51;;;;;;;9.17;7.20;;;;;;;19.93;36.49;97901.47;4858967;29;39066;-76
2024/03/09 09:28:20;;;;;;;8.17;6.70;;;;;;;21.93;34.91;97897.91;4876189;29;42181;-79
2024/03/09 09:30:47;;;;;;;8.33;7.43;;;;;;;24.02;31.16;97919.56;4876427;29;42936;-77
2024/03/09 09:33:16;;;;;;;7.83;7.00;;;;;;;24.51;29.78;97920.09;4876595;29;43222;-77
2024/03/09 09:35:43;;;;;;;7.63;6.93;;;;;;;25.76;27.46;97938.09;4876553;29;41294;-76
2024/03/09 09:38:17;;;;;;;7.20;6.45;;;;;;;26.40;26.08;97939.91;4862654;29;40549;-78
2024/03/09 09:40:47;;;;;;;6.95;6.25;;;;;;;26.29;27.02;97916.16;4878321;29;41782;-76
2024/03/09 09:43:15;;;;;;;7.82;7.03;;;;;;;25.59;25.21;97931.47;4861351;29;42408;-79
2024/03/09 09:45:44;;;;;;;7.72;6.90;;;;;;;25.37;26.29;97912.75;4878861;29;40870;-76
2024/03/09 09:48:14;;;;;;;6.93;6.27;;;;;;;25.18;26.44;97910.09;4862333;29;42486;-78
2024/03/09 09:50:44;;;;;;;8.00;7.20;;;;;;;25.34;26.81;97913.19;4878915;29;42847;-78
2024/03/09 09:53:17;;;;;;;7.63;6.83;;;;;;;24.70;27.02;97910.34;4876274;29;42154;-77
2024/03/09 09:55:46;;;;;;;6.77;6.00;;;;;;;23.77;27.60;97903.06;4876450;29;40882;-77
2024/03/09 09:58:14;;;;;;;7.00;6.30;;;;;;;23.35;27.72;97904.09;4878629;29;42641;-75
2024/03/09 10:00:42;;;;;;;6.90;6.20;;;;;;;22.76;28.92;97893.72;4877620;29;41613;-76
2024/03/09 10:03:11;;;;;;;7.30;6.47;;;;;;;22.30;28.88;97898.72;4877603;29;42972;-76
2024/03/09 10:05:39;;;;;;;7.63;6.13;;;;;;;22.10;28.99;97898.53;4878969;29;40479;-80
2024/03/09 10:08:09;;;;;;;7.60;6.67;;;;;;;22.85;28.77;97895.28;4877840;29;41961;-76
2024/03/09 10:10:42;;;;;;;9.57;7.87;;;;;;;23.42;28.11;97896.84;4877487;29;41851;-78
2024/03/09 10:13:12;;;;;;;7.90;6.60;;;;;;;23.52;27.47;97887.38;4875931;29;42289;-79
2024/03/09 10:15:43;;;;;;;7.07;6.37;;;;;;;24.63;27.75;97898.66;4877355;29;40689;-79
2024/03/09 10:18:12;;;;;;;7.65;6.95;;;;;;;26.75;26.00;97904.94;4876044;29;42630;-77
2024/03/09 10:20:40;;;;;;;6.88;6.20;;;;;;;28.66;24.89;97910.84;4878669;29;43798;-76
2024/03/09 10:23:11;;;;;;;7.00;6.30;;;;;;;30.26;22.79;97913.09;4877209;29;42725;-80
2024/03/09 10:25:41;;;;;;;7.22;6.53;;;;;;;31.04;21.28;97921.28;4876047;29;39942;-76
2024/03/09 10:28:10;;;;;;;6.57;5.97;;;;;;;30.75;21.69;97908.78;4862023;29;41200;-78
2024/03/09 10:30:38;;;;;;;7.70;6.25;;;;;;;30.12;20.46;97915.28;4877667;29;43545;-77
2024/03/09 10:33:09;;;;;;;6.65;6.05;;;;;;;28.52;21.78;97841.28;4879336;29;42928;-78
2024/03/09 10:35:40;;;;;;;6.88;6.18;;;;;;;28.49;22.96;97885.34;4875898;29;39919;-82
2024/03/09 10:38:09;;;;;;;7.55;6.82;;;;;;;27.57;22.28;97881.19;4878219;29;42388;-80
2024/03/09 10:40:37;;;;;;;7.43;6.73;;;;;;;26.26;23.39;97862.28;4878535;29;42889;-78
2024/03/09 10:43:11;;;;;;;7.17;6.47;;;;;;;25.46;24.42;97864.56;4879512;29;42307;-82
2024/03/09 10:45:40;;;;;;;7.33;6.63;;;;;;;24.80;25.17;97839.50;4862482;29;40146;-77
2024/03/09 10:48:09;;;;;;;6.83;6.13;;;;;;;25.06;25.83;97842.19;4877889;29;40893;-78
2024/03/09 10:50:43;;;;;;;8.10;6.97;;;;;;;26.89;24.14;97846.72;4859639;29;42323;-78
2024/03/09 10:53:35;;;;;;;7.82;6.70;;;;;;;29.27;21.90;97849.63;4874911;29;42486;-77
2024/03/09 10:56:07;;;;;;;6.72;6.00;;;;;;;31.39;20.68;97860.00;4875001;29;39918;-78
2024/03/09 10:58:40;;;;;;;7.55;6.28;;;;;;;32.79;18.73;97855.50;4874394;29;41893;-79
2024/03/09 11:01:10;;;;;;;8.18;5.80;;;;;;;34.62;17.89;97854.34;4859702;29;41949;-81
2024/03/09 11:03:37;;;;;;;6.35;5.75;;;;;;;36.16;17.01;97853.69;4860842;29;41629;-79
2024/03/09 11:06:09;;;;;;;5.80;5.30;;;;;;;36.86;16.14;97824.78;4877172;29;40485;-77
2024/03/09 11:08:38;;;;;;;6.25;5.68;;;;;;;37.81;16.22;97840.63;4875965;29;42084;-77
2024/03/09 11:11:05;;;;;;;6.13;5.63;;;;;;;38.27;14.82;97843.56;4859760;29;41543;-79
2024/03/09 11:13:33;;;;;;;5.97;5.47;;;;;;;38.61;14.06;97846.09;4877956;29;42587;-76
2024/03/09 11:16:03;;;;;;;6.68;6.07;;;;;;;38.68;14.32;97832.72;4876291;29;41849;-77
2024/03/09 11:18:33;;;;;;;5.90;5.30;;;;;;;39.19;14.97;97817.16;4876241;29;40377;-79
2024/03/09 11:21:00;;;;;;;6.22;5.72;;;;;;;39.11;15.04;97805.63;4876182;29;41760;-78
2024/03/09 11:23:32;;;;;;;6.38;5.88;;;;;;;38.97;14.65;97812.25;4877683;29;42132;-77
2024/03/09 11:26:00;;;;;;;6.43;5.82;;;;;;;39.84;14.46;97803.88;4875680;29;40938;-79
2024/03/09 11:28:50;;;;;;;6.80;6.18;;;;;;;40.66;13.77;97809.19;4877420;29;41717;-76
2024/03/09 11:31:26;;;;;;;6.70;6.10;;;;;;;41.45;13.45;97808.47;4875316;29;43586;-77
2024/03/09 11:33:57;;;;;;;7.28;6.68;;;;;;;42.18;13.58;97799.31;4875446;29;43248;-78
2024/03/09 11:36:38;;;;;;;7.05;6.35;;;;;;;42.43;12.14;97799.66;4861359;29;40303;-78
2024/03/09 11:39:06;;;;;;;6.47;5.97;;;;;;;42.53;12.38;97791.00;4876703;29;41372;-78